sensor_id;sensor_type;location;lat;lon;timestamp;P1;durP1;ratioP1;P2;durP2;ratioP2
13927;SDS011;7036;50.834;4.718;2023-08-12T00:02:25;4.90;;;3.87;;
13927;SDS011;7036;50.834;4.718;2023-08-12T00:04:52;5.50;;;3.70;;
13927;SDS011;7036;50.834;4.718;2023-08-12T00:07:19;5.03;;;3.90;;
13927;SDS011;7036;50.834;4.718;2023-08-12T00:09:46;6.07;;;4.20;;
13927;SDS011;7036;50.834;4.718;2023-08-12T00:12:13;5.13;;;3.90;;
13927;SDS011;7036;50.834;4.718;2023-08-12T00:14:40;6.10;;;3.67;;
13927;SDS011;7036;50.834;4.718;2023-08-12T00:17:07;4.53;;;4.07;;
13927;SDS011;7036;50.834;4.718;2023-08-12T00:19:33;5.20;;;3.70;;
13927;SDS011;7036;50.834;4.718;2023-08-12T00:22:00;6.20;;;3.70;;
13927;SDS011;7036;50.834;4.718;2023-08-12T00:24:27;3.77;;;3.23;;
13927;SDS011;7036;50.834;4.718;2023-08-12T00:26:54;6.57;;;4.00;;
13927;SDS011;7036;50.834;4.718;2023-08-12T00:29:21;4.87;;;3.87;;
13927;SDS011;7036;50.834;4.718;2023-08-12T00:31:48;5.13;;;3.43;;
13927;SDS011;7036;50.834;4.718;2023-08-12T00:34:17;6.20;;;4.03;;
13927;SDS011;7036;50.834;4.718;2023-08-12T00:36:43;3.70;;;3.37;;
13927;SDS011;7036;50.834;4.718;2023-08-12T00:39:10;4.00;;;3.47;;
13927;SDS011;7036;50.834;4.718;2023-08-12T00:41:37;3.77;;;3.47;;
13927;SDS011;7036;50.834;4.718;2023-08-12T00:44:04;4.03;;;3.50;;
13927;SDS011;7036;50.834;4.718;2023-08-12T00:46:31;5.73;;;3.50;;
13927;SDS011;7036;50.834;4.718;2023-08-12T00:48:58;4.67;;;3.50;;
13927;SDS011;7036;50.834;4.718;2023-08-12T00:51:25;5.93;;;3.80;;
13927;SDS011;7036;50.834;4.718;2023-08-12T00:53:52;5.10;;;3.43;;
13927;SDS011;7036;50.834;4.718;2023-08-12T00:56:20;4.17;;;3.77;;
13927;SDS011;7036;50.834;4.718;2023-08-12T00:58:46;4.57;;;3.70;;
13927;SDS011;7036;50.834;4.718;2023-08-12T01:01:13;6.33;;;3.73;;
13927;SDS011;7036;50.834;4.718;2023-08-12T01:03:40;4.30;;;3.37;;
13927;SDS011;7036;50.834;4.718;2023-08-12T01:06:07;5.20;;;3.70;;
13927;SDS011;7036;50.834;4.718;2023-08-12T01:08:34;5.63;;;3.17;;
13927;SDS011;7036;50.834;4.718;2023-08-12T01:11:12;4.30;;;3.57;;
13927;SDS011;7036;50.834;4.718;2023-08-12T01:13:35;4.77;;;3.50;;
13927;SDS011;7036;50.834;4.718;2023-08-12T01:16:13;4.70;;;3.83;;
13927;SDS011;7036;50.834;4.718;2023-08-12T01:18:39;4.97;;;3.50;;
13927;SDS011;7036;50.834;4.718;2023-08-12T01:21:07;4.77;;;3.47;;
13927;SDS011;7036;50.834;4.718;2023-08-12T01:23:33;6.20;;;3.97;;
13927;SDS011;7036;50.834;4.718;2023-08-12T01:26:00;3.40;;;3.10;;
13927;SDS011;7036;50.834;4.718;2023-08-12T01:28:27;4.20;;;3.33;;
13927;SDS011;7036;50.834;4.718;2023-08-12T01:30:56;4.33;;;3.60;;
13927;SDS011;7036;50.834;4.718;2023-08-12T01:33:27;4.83;;;3.60;;
13927;SDS011;7036;50.834;4.718;2023-08-12T01:35:55;4.30;;;3.60;;
13927;SDS011;7036;50.834;4.718;2023-08-12T01:38:22;3.53;;;3.23;;
13927;SDS011;7036;50.834;4.718;2023-08-12T01:40:49;3.80;;;3.40;;
13927;SDS011;7036;50.834;4.718;2023-08-12T01:43:16;4.03;;;3.40;;
13927;SDS011;7036;50.834;4.718;2023-08-12T01:45:43;3.87;;;3.30;;
13927;SDS011;7036;50.834;4.718;2023-08-12T01:48:10;4.47;;;3.37;;
13927;SDS011;7036;50.834;4.718;2023-08-12T01:50:37;5.70;;;3.60;;
13927;SDS011;7036;50.834;4.718;2023-08-12T01:53:04;4.53;;;3.30;;
13927;SDS011;7036;50.834;4.718;2023-08-12T01:55:30;4.67;;;3.90;;
13927;SDS011;7036;50.834;4.718;2023-08-12T01:57:57;7.63;;;3.53;;
13927;SDS011;7036;50.834;4.718;2023-08-12T02:00:24;5.77;;;3.80;;
13927;SDS011;7036;50.834;4.718;2023-08-12T02:02:51;6.33;;;3.47;;
13927;SDS011;7036;50.834;4.718;2023-08-12T02:05:18;9.60;;;3.93;;
13927;SDS011;7036;50.834;4.718;2023-08-12T02:07:45;5.67;;;3.87;;
13927;SDS011;7036;50.834;4.718;2023-08-12T02:10:12;5.30;;;3.43;;
13927;SDS011;7036;50.834;4.718;2023-08-12T02:12:39;4.50;;;3.53;;
13927;SDS011;7036;50.834;4.718;2023-08-12T02:15:06;5.53;;;3.57;;
13927;SDS011;7036;50.834;4.718;2023-08-12T02:17:33;4.47;;;3.60;;
13927;SDS011;7036;50.834;4.718;2023-08-12T02:20:00;4.53;;;3.70;;
13927;SDS011;7036;50.834;4.718;2023-08-12T02:22:27;3.97;;;3.30;;
13927;SDS011;7036;50.834;4.718;2023-08-12T02:24:54;3.60;;;3.30;;
13927;SDS011;7036;50.834;4.718;2023-08-12T02:27:22;6.20;;;3.33;;
13927;SDS011;7036;50.834;4.718;2023-08-12T02:29:49;5.70;;;3.30;;
13927;SDS011;7036;50.834;4.718;2023-08-12T02:32:15;6.20;;;3.40;;
13927;SDS011;7036;50.834;4.718;2023-08-12T02:34:43;6.10;;;3.67;;
13927;SDS011;7036;50.834;4.718;2023-08-12T02:37:10;10.87;;;3.73;;
13927;SDS011;7036;50.834;4.718;2023-08-12T02:39:37;4.87;;;3.40;;
13927;SDS011;7036;50.834;4.718;2023-08-12T02:42:04;4.53;;;3.80;;
13927;SDS011;7036;50.834;4.718;2023-08-12T02:44:31;3.57;;;3.27;;
13927;SDS011;7036;50.834;4.718;2023-08-12T02:46:58;5.60;;;3.50;;
13927;SDS011;7036;50.834;4.718;2023-08-12T02:49:25;6.23;;;3.80;;
13927;SDS011;7036;50.834;4.718;2023-08-12T02:51:52;6.03;;;3.67;;
13927;SDS011;7036;50.834;4.718;2023-08-12T02:54:19;4.20;;;3.80;;
13927;SDS011;7036;50.834;4.718;2023-08-12T02:56:46;4.63;;;3.60;;
13927;SDS011;7036;50.834;4.718;2023-08-12T02:59:12;4.27;;;3.03;;
13927;SDS011;7036;50.834;4.718;2023-08-12T03:01:40;6.70;;;3.30;;
13927;SDS011;7036;50.834;4.718;2023-08-12T03:04:06;6.13;;;3.87;;
13927;SDS011;7036;50.834;4.718;2023-08-12T03:06:33;4.17;;;3.50;;
13927;SDS011;7036;50.834;4.718;2023-08-12T03:09:00;4.37;;;3.80;;
13927;SDS011;7036;50.834;4.718;2023-08-12T03:11:27;4.27;;;3.67;;
13927;SDS011;7036;50.834;4.718;2023-08-12T03:13:54;5.80;;;3.70;;
13927;SDS011;7036;50.834;4.718;2023-08-12T03:16:21;6.37;;;4.20;;
13927;SDS011;7036;50.834;4.718;2023-08-12T03:18:48;5.07;;;3.87;;
13927;SDS011;7036;50.834;4.718;2023-08-12T03:21:15;5.23;;;3.60;;
13927;SDS011;7036;50.834;4.718;2023-08-12T03:23:42;5.43;;;3.80;;
13927;SDS011;7036;50.834;4.718;2023-08-12T03:26:09;6.33;;;3.27;;
13927;SDS011;7036;50.834;4.718;2023-08-12T03:28:36;5.00;;;3.50;;
13927;SDS011;7036;50.834;4.718;2023-08-12T03:31:03;5.37;;;4.03;;
13927;SDS011;7036;50.834;4.718;2023-08-12T03:33:30;5.80;;;3.77;;
13927;SDS011;7036;50.834;4.718;2023-08-12T03:35:57;4.87;;;4.20;;
13927;SDS011;7036;50.834;4.718;2023-08-12T03:38:23;3.97;;;3.27;;
13927;SDS011;7036;50.834;4.718;2023-08-12T03:40:50;3.60;;;3.30;;
13927;SDS011;7036;50.834;4.718;2023-08-12T03:43:17;5.30;;;3.50;;
13927;SDS011;7036;50.834;4.718;2023-08-12T03:45:45;3.83;;;3.50;;
13927;SDS011;7036;50.834;4.718;2023-08-12T03:48:12;5.40;;;3.53;;
13927;SDS011;7036;50.834;4.718;2023-08-12T03:50:39;6.15;;;3.40;;
13927;SDS011;7036;50.834;4.718;2023-08-12T03:53:06;4.30;;;3.57;;
13927;SDS011;7036;50.834;4.718;2023-08-12T03:55:33;6.47;;;4.10;;
13927;SDS011;7036;50.834;4.718;2023-08-12T03:58:00;4.13;;;3.67;;
13927;SDS011;7036;50.834;4.718;2023-08-12T04:00:27;5.97;;;3.77;;
13927;SDS011;7036;50.834;4.718;2023-08-12T04:02:54;4.90;;;3.67;;
13927;SDS011;7036;50.834;4.718;2023-08-12T04:05:21;5.30;;;3.83;;
13927;SDS011;7036;50.834;4.718;2023-08-12T04:07:48;4.57;;;3.57;;
13927;SDS011;7036;50.834;4.718;2023-08-12T04:10:15;4.27;;;3.60;;
13927;SDS011;7036;50.834;4.718;2023-08-12T04:12:42;4.63;;;3.73;;
13927;SDS011;7036;50.834;4.718;2023-08-12T04:15:08;5.20;;;3.53;;
13927;SDS011;7036;50.834;4.718;2023-08-12T04:17:35;4.20;;;3.33;;
13927;SDS011;7036;50.834;4.718;2023-08-12T04:20:02;5.20;;;3.80;;
13927;SDS011;7036;50.834;4.718;2023-08-12T04:22:29;5.20;;;3.83;;
13927;SDS011;7036;50.834;4.718;2023-08-12T04:24:56;4.27;;;3.63;;
13927;SDS011;7036;50.834;4.718;2023-08-12T04:27:26;4.60;;;3.43;;
13927;SDS011;7036;50.834;4.718;2023-08-12T04:29:50;4.07;;;3.53;;
13927;SDS011;7036;50.834;4.718;2023-08-12T04:32:17;4.57;;;3.63;;
13927;SDS011;7036;50.834;4.718;2023-08-12T04:34:45;4.77;;;3.93;;
13927;SDS011;7036;50.834;4.718;2023-08-12T04:37:11;6.67;;;3.40;;
13927;SDS011;7036;50.834;4.718;2023-08-12T04:39:38;5.47;;;3.83;;
13927;SDS011;7036;50.834;4.718;2023-08-12T04:42:05;4.60;;;3.73;;
13927;SDS011;7036;50.834;4.718;2023-08-12T04:44:32;6.87;;;4.03;;
13927;SDS011;7036;50.834;4.718;2023-08-12T04:46:59;6.50;;;3.87;;
13927;SDS011;7036;50.834;4.718;2023-08-12T04:49:26;5.47;;;3.23;;
13927;SDS011;7036;50.834;4.718;2023-08-12T04:51:53;5.50;;;3.33;;
13927;SDS011;7036;50.834;4.718;2023-08-12T04:54:20;3.70;;;3.40;;
13927;SDS011;7036;50.834;4.718;2023-08-12T04:56:47;7.03;;;3.83;;
13927;SDS011;7036;50.834;4.718;2023-08-12T04:59:14;5.27;;;3.40;;
13927;SDS011;7036;50.834;4.718;2023-08-12T05:01:40;5.53;;;4.07;;
13927;SDS011;7036;50.834;4.718;2023-08-12T05:04:07;5.23;;;3.97;;
13927;SDS011;7036;50.834;4.718;2023-08-12T05:06:34;4.73;;;4.33;;
13927;SDS011;7036;50.834;4.718;2023-08-12T05:09:01;4.97;;;3.87;;
13927;SDS011;7036;50.834;4.718;2023-08-12T05:11:28;5.30;;;3.70;;
13927;SDS011;7036;50.834;4.718;2023-08-12T05:13:55;4.27;;;3.50;;
13927;SDS011;7036;50.834;4.718;2023-08-12T05:16:22;4.90;;;3.57;;
13927;SDS011;7036;50.834;4.718;2023-08-12T05:18:49;4.80;;;4.30;;
13927;SDS011;7036;50.834;4.718;2023-08-12T05:21:16;4.73;;;4.00;;
13927;SDS011;7036;50.834;4.718;2023-08-12T05:23:43;4.67;;;3.43;;
13927;SDS011;7036;50.834;4.718;2023-08-12T05:26:09;6.97;;;4.03;;
13927;SDS011;7036;50.834;4.718;2023-08-12T05:28:36;4.20;;;3.77;;
13927;SDS011;7036;50.834;4.718;2023-08-12T05:31:04;4.13;;;3.73;;
13927;SDS011;7036;50.834;4.718;2023-08-12T05:33:31;4.73;;;3.57;;
13927;SDS011;7036;50.834;4.718;2023-08-12T05:35:58;5.03;;;3.77;;
13927;SDS011;7036;50.834;4.718;2023-08-12T05:38:24;4.07;;;3.50;;
13927;SDS011;7036;50.834;4.718;2023-08-12T05:40:52;4.20;;;3.80;;
13927;SDS011;7036;50.834;4.718;2023-08-12T05:43:19;4.90;;;3.50;;
13927;SDS011;7036;50.834;4.718;2023-08-12T05:45:46;3.63;;;3.33;;
13927;SDS011;7036;50.834;4.718;2023-08-12T05:48:13;5.50;;;3.40;;
13927;SDS011;7036;50.834;4.718;2023-08-12T05:50:39;5.53;;;3.37;;
13927;SDS011;7036;50.834;4.718;2023-08-12T05:53:06;4.80;;;3.20;;
13927;SDS011;7036;50.834;4.718;2023-08-12T05:55:33;3.53;;;2.90;;
13927;SDS011;7036;50.834;4.718;2023-08-12T05:58:00;3.27;;;2.97;;
13927;SDS011;7036;50.834;4.718;2023-08-12T06:00:27;3.67;;;2.93;;
13927;SDS011;7036;50.834;4.718;2023-08-12T06:02:54;6.20;;;3.00;;
13927;SDS011;7036;50.834;4.718;2023-08-12T06:05:21;3.53;;;3.10;;
13927;SDS011;7036;50.834;4.718;2023-08-12T06:07:49;3.13;;;2.27;;
13927;SDS011;7036;50.834;4.718;2023-08-12T06:10:15;3.87;;;3.07;;
13927;SDS011;7036;50.834;4.718;2023-08-12T06:12:43;3.03;;;2.40;;
13927;SDS011;7036;50.834;4.718;2023-08-12T06:15:10;3.80;;;2.50;;
13927;SDS011;7036;50.834;4.718;2023-08-12T06:17:37;3.10;;;2.77;;
13927;SDS011;7036;50.834;4.718;2023-08-12T06:20:04;2.93;;;2.53;;
13927;SDS011;7036;50.834;4.718;2023-08-12T06:22:33;3.10;;;2.50;;
13927;SDS011;7036;50.834;4.718;2023-08-12T06:24:59;2.50;;;2.30;;
13927;SDS011;7036;50.834;4.718;2023-08-12T06:27:26;2.90;;;2.50;;
13927;SDS011;7036;50.834;4.718;2023-08-12T06:29:53;3.50;;;2.30;;
13927;SDS011;7036;50.834;4.718;2023-08-12T06:32:20;2.57;;;2.10;;
13927;SDS011;7036;50.834;4.718;2023-08-12T06:34:47;2.63;;;2.37;;
13927;SDS011;7036;50.834;4.718;2023-08-12T06:37:15;2.57;;;1.93;;
13927;SDS011;7036;50.834;4.718;2023-08-12T06:39:42;1.67;;;1.57;;
13927;SDS011;7036;50.834;4.718;2023-08-12T06:42:09;2.47;;;2.27;;
13927;SDS011;7036;50.834;4.718;2023-08-12T06:44:36;2.67;;;2.17;;
13927;SDS011;7036;50.834;4.718;2023-08-12T06:47:03;2.43;;;1.70;;
13927;SDS011;7036;50.834;4.718;2023-08-12T06:49:30;2.60;;;1.70;;
13927;SDS011;7036;50.834;4.718;2023-08-12T06:51:58;2.63;;;2.43;;
13927;SDS011;7036;50.834;4.718;2023-08-12T06:54:24;2.50;;;2.13;;
13927;SDS011;7036;50.834;4.718;2023-08-12T06:56:51;2.93;;;1.97;;
13927;SDS011;7036;50.834;4.718;2023-08-12T06:59:18;1.60;;;1.50;;
13927;SDS011;7036;50.834;4.718;2023-08-12T07:01:45;1.87;;;1.70;;
13927;SDS011;7036;50.834;4.718;2023-08-12T07:04:13;2.87;;;1.67;;
13927;SDS011;7036;50.834;4.718;2023-08-12T07:06:40;2.00;;;1.77;;
13927;SDS011;7036;50.834;4.718;2023-08-12T07:09:07;2.10;;;1.70;;
13927;SDS011;7036;50.834;4.718;2023-08-12T07:11:33;1.40;;;1.30;;
13927;SDS011;7036;50.834;4.718;2023-08-12T07:14:00;2.03;;;1.80;;
13927;SDS011;7036;50.834;4.718;2023-08-12T07:16:28;2.43;;;1.60;;
13927;SDS011;7036;50.834;4.718;2023-08-12T07:18:55;2.33;;;1.93;;
13927;SDS011;7036;50.834;4.718;2023-08-12T07:21:22;1.97;;;1.63;;
13927;SDS011;7036;50.834;4.718;2023-08-12T07:23:49;3.10;;;1.50;;
13927;SDS011;7036;50.834;4.718;2023-08-12T07:26:16;5.20;;;1.80;;
13927;SDS011;7036;50.834;4.718;2023-08-12T07:28:43;1.63;;;1.40;;
13927;SDS011;7036;50.834;4.718;2023-08-12T07:31:10;2.07;;;1.60;;
13927;SDS011;7036;50.834;4.718;2023-08-12T07:33:37;2.83;;;1.77;;
13927;SDS011;7036;50.834;4.718;2023-08-12T07:36:04;1.90;;;1.53;;
13927;SDS011;7036;50.834;4.718;2023-08-12T07:38:31;3.20;;;1.40;;
13927;SDS011;7036;50.834;4.718;2023-08-12T07:40:57;1.93;;;1.83;;
13927;SDS011;7036;50.834;4.718;2023-08-12T07:43:24;2.23;;;1.60;;
13927;SDS011;7036;50.834;4.718;2023-08-12T07:45:52;1.47;;;1.30;;
13927;SDS011;7036;50.834;4.718;2023-08-12T07:48:19;1.67;;;1.50;;
13927;SDS011;7036;50.834;4.718;2023-08-12T07:50:45;2.37;;;1.63;;
13927;SDS011;7036;50.834;4.718;2023-08-12T07:53:12;2.17;;;1.57;;
13927;SDS011;7036;50.834;4.718;2023-08-12T07:55:39;2.37;;;1.50;;
13927;SDS011;7036;50.834;4.718;2023-08-12T07:58:06;2.40;;;1.40;;
13927;SDS011;7036;50.834;4.718;2023-08-12T08:00:33;1.50;;;1.20;;
13927;SDS011;7036;50.834;4.718;2023-08-12T08:03:01;2.37;;;1.40;;
13927;SDS011;7036;50.834;4.718;2023-08-12T08:05:28;2.60;;;1.50;;
13927;SDS011;7036;50.834;4.718;2023-08-12T08:07:55;1.53;;;1.13;;
13927;SDS011;7036;50.834;4.718;2023-08-12T08:10:22;1.50;;;1.40;;
13927;SDS011;7036;50.834;4.718;2023-08-12T08:12:49;1.77;;;1.23;;
13927;SDS011;7036;50.834;4.718;2023-08-12T08:15:16;3.17;;;1.47;;
13927;SDS011;7036;50.834;4.718;2023-08-12T08:17:44;1.43;;;1.30;;
13927;SDS011;7036;50.834;4.718;2023-08-12T08:20:12;2.20;;;1.23;;
13927;SDS011;7036;50.834;4.718;2023-08-12T08:22:38;2.70;;;1.13;;
13927;SDS011;7036;50.834;4.718;2023-08-12T08:25:05;1.67;;;1.50;;
13927;SDS011;7036;50.834;4.718;2023-08-12T08:27:32;2.00;;;1.20;;
13927;SDS011;7036;50.834;4.718;2023-08-12T08:29:59;2.13;;;1.33;;
13927;SDS011;7036;50.834;4.718;2023-08-12T08:32:26;2.20;;;1.47;;
13927;SDS011;7036;50.834;4.718;2023-08-12T08:34:53;1.93;;;1.57;;
13927;SDS011;7036;50.834;4.718;2023-08-12T08:37:20;1.50;;;1.40;;
13927;SDS011;7036;50.834;4.718;2023-08-12T08:39:47;1.90;;;1.60;;
13927;SDS011;7036;50.834;4.718;2023-08-12T08:42:15;2.33;;;1.63;;
13927;SDS011;7036;50.834;4.718;2023-08-12T08:44:42;2.13;;;1.50;;
13927;SDS011;7036;50.834;4.718;2023-08-12T08:47:08;3.10;;;1.80;;
13927;SDS011;7036;50.834;4.718;2023-08-12T08:49:35;2.47;;;1.63;;
13927;SDS011;7036;50.834;4.718;2023-08-12T08:52:02;2.80;;;1.57;;
13927;SDS011;7036;50.834;4.718;2023-08-12T08:54:29;2.97;;;1.93;;
13927;SDS011;7036;50.834;4.718;2023-08-12T08:56:56;3.73;;;1.97;;
13927;SDS011;7036;50.834;4.718;2023-08-12T08:59:23;3.23;;;1.67;;
13927;SDS011;7036;50.834;4.718;2023-08-12T09:01:50;3.77;;;1.97;;
13927;SDS011;7036;50.834;4.718;2023-08-12T09:04:17;6.63;;;1.57;;
13927;SDS011;7036;50.834;4.718;2023-08-12T09:06:44;2.80;;;1.80;;
13927;SDS011;7036;50.834;4.718;2023-08-12T09:09:12;4.63;;;1.73;;
13927;SDS011;7036;50.834;4.718;2023-08-12T09:11:38;2.00;;;1.80;;
13927;SDS011;7036;50.834;4.718;2023-08-12T09:14:05;4.27;;;2.13;;
13927;SDS011;7036;50.834;4.718;2023-08-12T09:16:32;1.97;;;1.60;;
13927;SDS011;7036;50.834;4.718;2023-08-12T09:18:58;2.53;;;1.97;;
13927;SDS011;7036;50.834;4.718;2023-08-12T09:21:25;2.77;;;2.20;;
13927;SDS011;7036;50.834;4.718;2023-08-12T09:23:52;2.60;;;1.80;;
13927;SDS011;7036;50.834;4.718;2023-08-12T09:26:20;1.73;;;1.63;;
13927;SDS011;7036;50.834;4.718;2023-08-12T09:28:46;8.83;;;1.90;;
13927;SDS011;7036;50.834;4.718;2023-08-12T09:31:23;1.70;;;1.50;;
13927;SDS011;7036;50.834;4.718;2023-08-12T09:33:49;1.90;;;1.60;;
13927;SDS011;7036;50.834;4.718;2023-08-12T09:36:16;1.70;;;1.60;;
13927;SDS011;7036;50.834;4.718;2023-08-12T09:38:43;4.53;;;1.80;;
13927;SDS011;7036;50.834;4.718;2023-08-12T09:41:10;1.83;;;1.50;;
13927;SDS011;7036;50.834;4.718;2023-08-12T09:43:41;4.37;;;1.43;;
13927;SDS011;7036;50.834;4.718;2023-08-12T09:46:12;2.60;;;1.40;;
13927;SDS011;7036;50.834;4.718;2023-08-12T09:48:39;1.63;;;1.20;;
13927;SDS011;7036;50.834;4.718;2023-08-12T09:51:06;2.87;;;1.53;;
13927;SDS011;7036;50.834;4.718;2023-08-12T09:53:33;2.30;;;1.37;;
13927;SDS011;7036;50.834;4.718;2023-08-12T09:56:03;3.03;;;1.50;;
13927;SDS011;7036;50.834;4.718;2023-08-12T09:58:28;4.37;;;1.40;;
13927;SDS011;7036;50.834;4.718;2023-08-12T10:00:54;3.93;;;1.63;;
13927;SDS011;7036;50.834;4.718;2023-08-12T10:03:21;3.40;;;1.40;;
13927;SDS011;7036;50.834;4.718;2023-08-12T10:05:49;4.10;;;1.60;;
13927;SDS011;7036;50.834;4.718;2023-08-12T10:08:17;4.10;;;1.77;;
13927;SDS011;7036;50.834;4.718;2023-08-12T10:10:44;3.43;;;1.80;;
13927;SDS011;7036;50.834;4.718;2023-08-12T10:13:10;2.17;;;1.40;;
13927;SDS011;7036;50.834;4.718;2023-08-12T10:15:38;1.97;;;1.43;;
13927;SDS011;7036;50.834;4.718;2023-08-12T10:18:05;2.97;;;1.70;;
13927;SDS011;7036;50.834;4.718;2023-08-12T10:20:33;2.10;;;1.40;;
13927;SDS011;7036;50.834;4.718;2023-08-12T10:23:00;2.67;;;1.70;;
13927;SDS011;7036;50.834;4.718;2023-08-12T10:25:29;3.50;;;1.93;;
13927;SDS011;7036;50.834;4.718;2023-08-12T10:27:53;4.23;;;1.97;;
13927;SDS011;7036;50.834;4.718;2023-08-12T10:30:20;5.87;;;2.27;;
13927;SDS011;7036;50.834;4.718;2023-08-12T10:32:47;5.43;;;1.73;;
13927;SDS011;7036;50.834;4.718;2023-08-12T10:35:14;4.70;;;1.83;;
13927;SDS011;7036;50.834;4.718;2023-08-12T10:37:41;3.83;;;2.00;;
13927;SDS011;7036;50.834;4.718;2023-08-12T10:40:19;4.37;;;1.73;;
13927;SDS011;7036;50.834;4.718;2023-08-12T10:42:39;2.87;;;2.10;;
13927;SDS011;7036;50.834;4.718;2023-08-12T10:45:06;2.03;;;1.53;;
13927;SDS011;7036;50.834;4.718;2023-08-12T10:47:37;6.80;;;2.43;;
13927;SDS011;7036;50.834;4.718;2023-08-12T10:50:01;3.67;;;2.07;;
13927;SDS011;7036;50.834;4.718;2023-08-12T10:52:31;4.07;;;2.60;;
13927;SDS011;7036;50.834;4.718;2023-08-12T10:57:50;3.23;;;2.27;;
13927;SDS011;7036;50.834;4.718;2023-08-12T11:00:17;4.57;;;2.10;;
13927;SDS011;7036;50.834;4.718;2023-08-12T11:02:48;4.07;;;2.30;;
13927;SDS011;7036;50.834;4.718;2023-08-12T11:05:13;4.67;;;2.20;;
13927;SDS011;7036;50.834;4.718;2023-08-12T11:07:43;3.03;;;1.93;;
13927;SDS011;7036;50.834;4.718;2023-08-12T11:10:10;4.37;;;1.93;;
13927;SDS011;7036;50.834;4.718;2023-08-12T11:12:36;2.57;;;1.73;;
13927;SDS011;7036;50.834;4.718;2023-08-12T11:15:03;2.93;;;1.73;;
13927;SDS011;7036;50.834;4.718;2023-08-12T11:17:37;6.67;;;1.97;;
13927;SDS011;7036;50.834;4.718;2023-08-12T11:20:07;2.53;;;1.50;;
13927;SDS011;7036;50.834;4.718;2023-08-12T11:22:40;3.87;;;2.10;;
13927;SDS011;7036;50.834;4.718;2023-08-12T11:25:03;3.57;;;1.40;;
13927;SDS011;7036;50.834;4.718;2023-08-12T11:27:34;2.60;;;1.73;;
13927;SDS011;7036;50.834;4.718;2023-08-12T11:29:57;3.17;;;1.90;;
13927;SDS011;7036;50.834;4.718;2023-08-12T11:32:24;5.20;;;2.20;;
13927;SDS011;7036;50.834;4.718;2023-08-12T11:34:51;4.23;;;1.47;;
13927;SDS011;7036;50.834;4.718;2023-08-12T11:37:18;6.03;;;2.10;;
13927;SDS011;7036;50.834;4.718;2023-08-12T11:39:44;6.67;;;2.40;;
13927;SDS011;7036;50.834;4.718;2023-08-12T11:42:14;3.30;;;1.50;;
13927;SDS011;7036;50.834;4.718;2023-08-12T11:44:43;6.57;;;1.90;;
13927;SDS011;7036;50.834;4.718;2023-08-12T11:47:09;5.17;;;2.03;;
13927;SDS011;7036;50.834;4.718;2023-08-12T11:49:36;5.03;;;2.10;;
13927;SDS011;7036;50.834;4.718;2023-08-12T11:52:03;2.97;;;1.87;;
13927;SDS011;7036;50.834;4.718;2023-08-12T11:54:30;2.00;;;1.50;;
13927;SDS011;7036;50.834;4.718;2023-08-12T11:56:57;6.40;;;2.03;;
13927;SDS011;7036;50.834;4.718;2023-08-12T11:59:25;3.50;;;1.87;;
13927;SDS011;7036;50.834;4.718;2023-08-12T12:01:54;4.07;;;1.97;;
13927;SDS011;7036;50.834;4.718;2023-08-12T12:04:20;4.43;;;1.83;;
13927;SDS011;7036;50.834;4.718;2023-08-12T12:06:46;4.57;;;2.10;;
13927;SDS011;7036;50.834;4.718;2023-08-12T12:09:13;3.57;;;1.73;;
13927;SDS011;7036;50.834;4.718;2023-08-12T12:11:41;3.17;;;1.70;;
13927;SDS011;7036;50.834;4.718;2023-08-12T12:14:08;5.37;;;2.23;;
13927;SDS011;7036;50.834;4.718;2023-08-12T12:16:38;5.47;;;1.83;;
13927;SDS011;7036;50.834;4.718;2023-08-12T12:19:22;2.77;;;1.80;;
13927;SDS011;7036;50.834;4.718;2023-08-12T12:21:50;3.47;;;1.60;;
13927;SDS011;7036;50.834;4.718;2023-08-12T12:24:16;4.17;;;2.00;;
13927;SDS011;7036;50.834;4.718;2023-08-12T12:26:43;3.73;;;1.73;;
13927;SDS011;7036;50.834;4.718;2023-08-12T12:29:10;4.27;;;1.67;;
13927;SDS011;7036;50.834;4.718;2023-08-12T12:31:40;1.63;;;1.53;;
13927;SDS011;7036;50.834;4.718;2023-08-12T12:34:06;3.00;;;1.53;;
13927;SDS011;7036;50.834;4.718;2023-08-12T12:36:36;4.93;;;1.77;;
13927;SDS011;7036;50.834;4.718;2023-08-12T12:39:00;4.57;;;2.03;;
13927;SDS011;7036;50.834;4.718;2023-08-12T12:41:27;5.37;;;1.90;;
13927;SDS011;7036;50.834;4.718;2023-08-12T12:43:54;4.03;;;2.03;;
13927;SDS011;7036;50.834;4.718;2023-08-12T12:46:21;2.70;;;1.40;;
13927;SDS011;7036;50.834;4.718;2023-08-12T12:48:48;4.20;;;1.73;;
13927;SDS011;7036;50.834;4.718;2023-08-12T12:51:15;3.10;;;1.70;;
13927;SDS011;7036;50.834;4.718;2023-08-12T12:53:42;3.70;;;1.97;;
13927;SDS011;7036;50.834;4.718;2023-08-12T12:56:09;5.93;;;1.73;;
13927;SDS011;7036;50.834;4.718;2023-08-12T12:58:36;3.93;;;1.63;;
13927;SDS011;7036;50.834;4.718;2023-08-12T13:01:03;3.60;;;1.80;;
13927;SDS011;7036;50.834;4.718;2023-08-12T13:03:30;2.93;;;1.80;;
13927;SDS011;7036;50.834;4.718;2023-08-12T13:05:56;3.73;;;2.00;;
13927;SDS011;7036;50.834;4.718;2023-08-12T13:08:24;3.90;;;1.90;;
13927;SDS011;7036;50.834;4.718;2023-08-12T13:10:50;6.37;;;1.93;;
13927;SDS011;7036;50.834;4.718;2023-08-12T13:13:18;5.73;;;2.17;;
13927;SDS011;7036;50.834;4.718;2023-08-12T13:15:47;4.23;;;1.70;;
13927;SDS011;7036;50.834;4.718;2023-08-12T13:18:14;4.80;;;2.23;;
13927;SDS011;7036;50.834;4.718;2023-08-12T13:20:41;5.40;;;2.10;;
13927;SDS011;7036;50.834;4.718;2023-08-12T13:23:08;4.57;;;2.10;;
13927;SDS011;7036;50.834;4.718;2023-08-12T13:25:35;4.23;;;1.73;;
13927;SDS011;7036;50.834;4.718;2023-08-12T13:28:02;2.00;;;1.80;;
13927;SDS011;7036;50.834;4.718;2023-08-12T13:30:29;3.53;;;2.40;;
13927;SDS011;7036;50.834;4.718;2023-08-12T13:32:56;5.00;;;2.00;;
13927;SDS011;7036;50.834;4.718;2023-08-12T13:35:22;5.07;;;2.20;;
13927;SDS011;7036;50.834;4.718;2023-08-12T13:37:51;4.37;;;2.30;;
13927;SDS011;7036;50.834;4.718;2023-08-12T13:40:17;4.67;;;2.23;;
13927;SDS011;7036;50.834;4.718;2023-08-12T13:42:44;4.00;;;2.00;;
13927;SDS011;7036;50.834;4.718;2023-08-12T13:45:14;6.03;;;1.97;;
13927;SDS011;7036;50.834;4.718;2023-08-12T13:47:41;4.10;;;2.27;;
13927;SDS011;7036;50.834;4.718;2023-08-12T13:50:08;8.80;;;2.40;;
13927;SDS011;7036;50.834;4.718;2023-08-12T13:52:35;4.50;;;2.03;;
13927;SDS011;7036;50.834;4.718;2023-08-12T13:55:03;4.77;;;2.13;;
13927;SDS011;7036;50.834;4.718;2023-08-12T13:57:29;5.33;;;2.30;;
13927;SDS011;7036;50.834;4.718;2023-08-12T13:59:56;2.93;;;2.00;;
13927;SDS011;7036;50.834;4.718;2023-08-12T14:02:24;2.90;;;2.07;;
13927;SDS011;7036;50.834;4.718;2023-08-12T14:04:50;3.00;;;2.10;;
13927;SDS011;7036;50.834;4.718;2023-08-12T14:07:17;6.23;;;2.13;;
13927;SDS011;7036;50.834;4.718;2023-08-12T14:09:44;3.70;;;1.87;;
13927;SDS011;7036;50.834;4.718;2023-08-12T14:12:11;2.57;;;1.87;;
13927;SDS011;7036;50.834;4.718;2023-08-12T14:14:38;2.97;;;2.10;;
13927;SDS011;7036;50.834;4.718;2023-08-12T14:17:05;3.00;;;1.60;;
13927;SDS011;7036;50.834;4.718;2023-08-12T14:19:32;3.87;;;1.80;;
13927;SDS011;7036;50.834;4.718;2023-08-12T14:21:59;5.10;;;2.37;;
13927;SDS011;7036;50.834;4.718;2023-08-12T14:24:26;5.87;;;2.20;;
13927;SDS011;7036;50.834;4.718;2023-08-12T14:26:53;4.37;;;1.90;;
13927;SDS011;7036;50.834;4.718;2023-08-12T14:29:20;3.37;;;2.10;;
13927;SDS011;7036;50.834;4.718;2023-08-12T14:31:47;3.33;;;2.07;;
13927;SDS011;7036;50.834;4.718;2023-08-12T14:34:14;2.83;;;1.87;;
13927;SDS011;7036;50.834;4.718;2023-08-12T14:36:41;6.57;;;1.83;;
13927;SDS011;7036;50.834;4.718;2023-08-12T14:39:07;5.57;;;2.23;;
13927;SDS011;7036;50.834;4.718;2023-08-12T14:41:34;4.53;;;1.80;;
13927;SDS011;7036;50.834;4.718;2023-08-12T14:44:01;5.70;;;2.37;;
13927;SDS011;7036;50.834;4.718;2023-08-12T14:46:28;10.43;;;2.67;;
13927;SDS011;7036;50.834;4.718;2023-08-12T14:48:55;3.93;;;2.20;;
13927;SDS011;7036;50.834;4.718;2023-08-12T14:51:22;4.10;;;2.00;;
13927;SDS011;7036;50.834;4.718;2023-08-12T14:53:49;5.37;;;2.40;;
13927;SDS011;7036;50.834;4.718;2023-08-12T14:56:16;4.53;;;2.40;;
13927;SDS011;7036;50.834;4.718;2023-08-12T14:58:44;3.73;;;1.97;;
13927;SDS011;7036;50.834;4.718;2023-08-12T15:01:10;5.30;;;2.23;;
13927;SDS011;7036;50.834;4.718;2023-08-12T15:03:37;3.17;;;1.70;;